Time;durP1;ratioP1;P1;durP2;ratioP2;P2;SDS_P1;SDS_P2;PMS_P1;PMS_P2;Temp;Humidity;BMP_temperature;BMP_pressure;BME280_temperature;BME280_humidity;BME280_pressure;Samples;Min_cycle;Max_cycle;Signal;HPM_P1;HPM_P2
2021/01/20 00:02:15;;;;;;;5.07;2.72;;;;;;;;;;5095216;28;20119;-73
2021/01/20 00:04:41;;;;;;;4.38;2.55;;;;;;;;;;5097587;28;20040;-73
2021/01/20 00:07:06;;;;;;;6.15;3.15;;;;;;;;;;5097602;28;20078;-73
2021/01/20 00:09:31;;;;;;;2.75;2.17;;;;;;;;;;5096393;28;20032;-73
2021/01/20 00:11:57;;;;;;;4.93;3.25;;;;;;;;;;5097532;28;20028;-73
2021/01/20 00:14:22;;;;;;;5.78;2.63;;;;;;;;;;5097325;28;20509;-73
2021/01/20 00:16:48;;;;;;;4.72;2.83;;;;;;;;;;5096909;28;20512;-73
2021/01/20 00:19:13;;;;;;;3.58;2.42;;;;;;;;;;5097472;28;20397;-73
2021/01/20 00:21:39;;;;;;;6.57;2.53;;;;;;;;;;5096117;28;20112;-74
2021/01/20 00:24:05;;;;;;;5.88;3.00;;;;;;;;;;5097226;28;20031;-73
2021/01/20 00:26:31;;;;;;;5.70;2.85;;;;;;;;;;5097270;28;20480;-73
2021/01/20 00:28:56;;;;;;;5.85;3.25;;;;;;;;;;5097012;28;20109;-73
2021/01/20 00:31:22;;;;;;;9.35;3.75;;;;;;;;;;5096595;28;20386;-73
2021/01/20 00:33:47;;;;;;;5.40;2.97;;;;;;;;;;5097095;28;20081;-73
2021/01/20 00:36:13;;;;;;;9.52;2.83;;;;;;;;;;5096930;28;20064;-73
2021/01/20 00:38:39;;;;;;;6.10;2.67;;;;;;;;;;5097031;28;20035;-73
2021/01/20 00:41:04;;;;;;;7.85;3.13;;;;;;;;;;5096611;28;20539;-73
2021/01/20 00:43:30;;;;;;;9.52;3.80;;;;;;;;;;5095691;28;20047;-73
2021/01/20 00:45:56;;;;;;;9.57;3.28;;;;;;;;;;5096373;28;20055;-73
2021/01/20 00:48:22;;;;;;;9.05;3.13;;;;;;;;;;5096748;28;20028;-73
2021/01/20 00:50:47;;;;;;;7.72;2.83;;;;;;;;;;5096721;28;20149;-73
2021/01/20 00:53:13;;;;;;;6.28;2.90;;;;;;;;;;5096790;28;20089;-73
2021/01/20 00:55:38;;;;;;;7.68;2.90;;;;;;;;;;5096135;28;20121;-73
2021/01/20 00:58:04;;;;;;;11.57;2.80;;;;;;;;;;5095236;28;20074;-73
2021/01/20 01:00:29;;;;;;;8.70;2.85;;;;;;;;;;5095100;28;20040;-73
2021/01/20 01:02:55;;;;;;;7.03;3.20;;;;;;;;;;5094927;28;20450;-73
2021/01/20 01:05:20;;;;;;;8.43;4.40;;;;;;;;;;5096377;28;20432;-73
2021/01/20 01:07:52;;;;;;;8.10;4.00;;;;;;;;;;5095271;28;20028;-73
2021/01/20 01:10:18;;;;;;;8.02;3.65;;;;;;;;;;5095018;28;20042;-73
2021/01/20 01:13:01;;;;;;;9.57;3.90;;;;;;;;;;5093916;28;20031;-73
2021/01/20 01:15:28;;;;;;;7.22;4.22;;;;;;;;;;5094711;28;20043;-73
2021/01/20 01:17:54;;;;;;;6.47;4.10;;;;;;;;;;5094769;28;20036;-73
2021/01/20 01:20:20;;;;;;;6.55;3.47;;;;;;;;;;5096200;28;20497;-73
2021/01/20 01:22:45;;;;;;;6.97;4.05;;;;;;;;;;5095688;28;20123;-73
2021/01/20 01:25:13;;;;;;;7.22;4.13;;;;;;;;;;5094748;28;20031;-73
2021/01/20 01:27:44;;;;;;;13.60;4.70;;;;;;;;;;5094787;28;20385;-73
2021/01/20 01:30:11;;;;;;;10.23;3.58;;;;;;;;;;5094682;28;20032;-73
2021/01/20 01:32:40;;;;;;;12.18;4.85;;;;;;;;;;5094556;28;20032;-73
2021/01/20 01:35:11;;;;;;;5.90;3.30;;;;;;;;;;5094685;28;20081;-73
2021/01/20 01:37:40;;;;;;;8.55;4.47;;;;;;;;;;5078434;28;20054;-73
2021/01/20 01:40:08;;;;;;;9.00;4.38;;;;;;;;;;5095826;28;20036;-73
2021/01/20 01:42:54;;;;;;;14.75;4.78;;;;;;;;;;5095654;28;20111;-73
2021/01/20 01:45:19;;;;;;;11.93;4.38;;;;;;;;;;5094251;28;20083;-74
2021/01/20 01:47:46;;;;;;;8.95;3.40;;;;;;;;;;5095366;28;20393;-73
2021/01/20 01:50:12;;;;;;;10.98;4.05;;;;;;;;;;5094356;28;20028;-73
2021/01/20 01:52:38;;;;;;;10.40;4.38;;;;;;;;;;5094317;28;20397;-73
2021/01/20 01:55:22;;;;;;;8.38;4.35;;;;;;;;;;5095580;28;20051;-73
2021/01/20 01:58:08;;;;;;;11.60;4.40;;;;;;;;;;5087812;28;20036;-73
2021/01/20 02:00:37;;;;;;;7.35;4.25;;;;;;;;;;5093517;28;20035;-73
2021/01/20 02:03:13;;;;;;;7.40;4.38;;;;;;;;;;5093945;28;20370;-73
2021/01/20 02:05:39;;;;;;;12.02;4.18;;;;;;;;;;5094105;28;20054;-73
2021/01/20 02:08:06;;;;;;;7.72;4.10;;;;;;;;;;5095349;28;20060;-73
2021/01/20 02:10:40;;;;;;;12.43;4.65;;;;;;;;;;5094011;28;20394;-73
2021/01/20 02:13:16;;;;;;;11.73;4.35;;;;;;;;;;5095351;28;20481;-73
2021/01/20 02:16:15;;;;;;;9.63;4.15;;;;;;;;;;5094900;28;20047;-72
2021/01/20 02:18:41;;;;;;;8.43;4.15;;;;;;;;;;5093925;28;20552;-73
2021/01/20 02:21:34;;;;;;;8.60;4.00;;;;;;;;;;5093967;28;20420;-73
2021/01/20 02:24:22;;;;;;;5.18;3.50;;;;;;;;;;5094795;28;20093;-73
2021/01/20 02:27:10;;;;;;;8.13;3.45;;;;;;;;;;5093904;28;20378;-73
2021/01/20 02:30:06;;;;;;;8.68;3.72;;;;;;;;;;5093497;28;20042;-73
2021/01/20 02:32:53;;;;;;;8.70;3.55;;;;;;;;;;5093547;28;20039;-73
2021/01/20 02:35:34;;;;;;;11.65;3.80;;;;;;;;;;5093642;28;20511;-73
2021/01/20 02:38:04;;;;;;;8.15;3.80;;;;;;;;;;5094934;28;20473;-73
2021/01/20 02:40:45;;;;;;;8.45;3.70;;;;;;;;;;5093304;28;20574;-73
2021/01/20 02:43:37;;;;;;;7.25;3.35;;;;;;;;;;5078469;28;20126;-73
2021/01/20 02:46:22;;;;;;;8.20;3.25;;;;;;;;;;5072453;28;20036;-73
2021/01/20 02:48:48;;;;;;;7.95;3.70;;;;;;;;;;5093520;28;20055;-73
2021/01/20 02:51:19;;;;;;;8.88;3.35;;;;;;;;;;5094473;28;20075;-73
2021/01/20 02:54:06;;;;;;;6.93;3.15;;;;;;;;;;5094939;28;20501;-73
2021/01/20 02:57:04;;;;;;;5.93;3.00;;;;;;;;;;5094571;28;20056;-73
2021/01/20 02:59:45;;;;;;;5.55;3.20;;;;;;;;;;5093538;28;20385;-73
2021/01/20 03:02:35;;;;;;;5.28;3.40;;;;;;;;;;5093307;28;20080;-73
2021/01/20 03:05:02;;;;;;;6.60;3.70;;;;;;;;;;5093070;28;20401;-73
2021/01/20 03:07:30;;;;;;;6.82;3.47;;;;;;;;;;5094557;28;20050;-73
2021/01/20 03:09:57;;;;;;;9.75;3.88;;;;;;;;;;5094487;28;20044;-73
2021/01/20 03:12:28;;;;;;;12.07;5.07;;;;;;;;;;5094302;28;20043;-73
2021/01/20 03:14:56;;;;;;;11.93;6.22;;;;;;;;;;5094165;28;20036;-72
2021/01/20 03:17:22;;;;;;;12.20;4.93;;;;;;;;;;5095143;28;20028;-73
2021/01/20 03:19:47;;;;;;;11.00;4.85;;;;;;;;;;5094619;28;20040;-73
2021/01/20 03:22:12;;;;;;;6.40;3.70;;;;;;;;;;5093816;28;20032;-75
2021/01/20 03:24:38;;;;;;;8.77;4.38;;;;;;;;;;5094557;28;20477;-73
2021/01/20 03:27:03;;;;;;;7.35;3.60;;;;;;;;;;5094264;28;20086;-73
2021/01/20 03:29:29;;;;;;;7.40;3.47;;;;;;;;;;5094528;28;20047;-74
2021/01/20 03:31:54;;;;;;;4.85;3.10;;;;;;;;;;5094342;28;20105;-73
2021/01/20 03:34:19;;;;;;;4.40;2.92;;;;;;;;;;5094370;28;20131;-73
2021/01/20 03:36:45;;;;;;;5.57;3.08;;;;;;;;;;5093533;28;20074;-73
2021/01/20 03:39:10;;;;;;;6.30;2.90;;;;;;;;;;5095019;28;20164;-73
2021/01/20 03:41:35;;;;;;;6.95;2.90;;;;;;;;;;5094954;28;20047;-74
2021/01/20 03:44:01;;;;;;;6.03;3.35;;;;;;;;;;5095458;28;20082;-73
2021/01/20 03:46:26;;;;;;;6.38;3.35;;;;;;;;;;5094707;28;20050;-73
2021/01/20 03:48:51;;;;;;;6.05;3.00;;;;;;;;;;5096471;28;20363;-74
2021/01/20 03:51:17;;;;;;;4.32;3.08;;;;;;;;;;5094735;28;20040;-73
2021/01/20 03:53:42;;;;;;;7.95;4.72;;;;;;;;;;5095622;28;20032;-73
2021/01/20 03:56:07;;;;;;;6.75;3.85;;;;;;;;;;5094467;28;20051;-75
2021/01/20 03:58:33;;;;;;;20.30;11.65;;;;;;;;;;5094966;28;20462;-75
2021/01/20 04:00:58;;;;;;;19.55;11.50;;;;;;;;;;5094059;28;20039;-75
2021/01/20 04:03:25;;;;;;;19.25;12.90;;;;;;;;;;5094226;28;20423;-73
2021/01/20 04:06:10;;;;;;;18.90;10.85;;;;;;;;;;5093440;28;20507;-73
2021/01/20 04:08:35;;;;;;;13.70;8.90;;;;;;;;;;5092995;28;20040;-73
2021/01/20 04:11:01;;;;;;;37.28;23.30;;;;;;;;;;5095048;28;20024;-73
2021/01/20 04:13:26;;;;;;;36.95;23.45;;;;;;;;;;5095154;28;20036;-73
2021/01/20 04:15:51;;;;;;;23.13;13.95;;;;;;;;;;5093540;28;20040;-73
2021/01/20 04:18:17;;;;;;;15.38;9.15;;;;;;;;;;5094803;28;20386;-73
2021/01/20 04:20:43;;;;;;;18.60;9.38;;;;;;;;;;5094868;28;20132;-73
2021/01/20 04:23:08;;;;;;;12.27;6.43;;;;;;;;;;5094095;28;20036;-74
2021/01/20 04:25:35;;;;;;;10.48;4.38;;;;;;;;;;5096954;28;20039;-74
2021/01/20 04:28:01;;;;;;;9.05;4.50;;;;;;;;;;5095984;28;20371;-74
2021/01/20 04:30:27;;;;;;;10.23;3.90;;;;;;;;;;5080157;28;20064;-74
2021/01/20 04:32:53;;;;;;;8.48;2.78;;;;;;;;;;5097375;28;20424;-73
2021/01/20 04:35:19;;;;;;;7.88;3.05;;;;;;;;;;5097992;28;20032;-73
2021/01/20 04:37:44;;;;;;;9.35;4.35;;;;;;;;;;5096607;28;20065;-74
2021/01/20 04:40:10;;;;;;;6.22;2.58;;;;;;;;;;5094298;28;20040;-74
2021/01/20 04:42:36;;;;;;;7.03;3.58;;;;;;;;;;5093473;28;20028;-73
2021/01/20 04:45:01;;;;;;;8.73;3.55;;;;;;;;;;5091753;28;20177;-73
2021/01/20 04:47:28;;;;;;;5.55;2.58;;;;;;;;;;5092194;28;20042;-74
2021/01/20 04:49:54;;;;;;;6.25;3.20;;;;;;;;;;5097067;28;20065;-73
2021/01/20 04:52:23;;;;;;;5.35;3.28;;;;;;;;;;5097292;28;20035;-74
2021/01/20 04:54:49;;;;;;;6.75;2.78;;;;;;;;;;5097472;28;20409;-73
2021/01/20 04:57:15;;;;;;;7.63;2.90;;;;;;;;;;5097787;28;20039;-74
2021/01/20 04:59:42;;;;;;;7.78;3.38;;;;;;;;;;5098711;28;20046;-74
2021/01/20 05:02:11;;;;;;;5.50;3.28;;;;;;;;;;5096413;28;20081;-74
2021/01/20 05:04:39;;;;;;;5.75;3.08;;;;;;;;;;5096906;28;20036;-74
2021/01/20 05:07:06;;;;;;;6.55;3.08;;;;;;;;;;5096939;28;20094;-74
2021/01/20 05:09:31;;;;;;;6.40;2.83;;;;;;;;;;5097231;28;20032;-74
2021/01/20 05:11:57;;;;;;;6.03;2.97;;;;;;;;;;5096180;28;20077;-74
2021/01/20 05:14:23;;;;;;;7.35;3.08;;;;;;;;;;5096378;28;20112;-73
2021/01/20 05:16:50;;;;;;;5.68;2.97;;;;;;;;;;5095976;28;20032;-74
2021/01/20 05:19:16;;;;;;;6.18;3.25;;;;;;;;;;5097800;28;20032;-74
2021/01/20 05:21:41;;;;;;;5.47;3.38;;;;;;;;;;5097823;28;20126;-74
2021/01/20 05:24:21;;;;;;;6.97;3.08;;;;;;;;;;5097664;28;20050;-74
2021/01/20 05:26:47;;;;;;;4.80;3.05;;;;;;;;;;5096821;28;20439;-74
2021/01/20 05:29:14;;;;;;;4.55;2.97;;;;;;;;;;5098165;28;20035;-73
2021/01/20 05:31:40;;;;;;;7.30;3.53;;;;;;;;;;5097544;28;20043;-73
2021/01/20 05:34:20;;;;;;;5.60;3.30;;;;;;;;;;5098320;28;20031;-73
2021/01/20 05:37:00;;;;;;;7.80;3.00;;;;;;;;;;5098110;28;20500;-73
2021/01/20 05:39:25;;;;;;;6.30;3.35;;;;;;;;;;5098284;28;20428;-74
2021/01/20 05:41:59;;;;;;;6.13;3.25;;;;;;;;;;5096990;28;20039;-73
2021/01/20 05:44:25;;;;;;;6.20;3.15;;;;;;;;;;5098623;28;20067;-74
2021/01/20 05:46:50;;;;;;;6.00;2.97;;;;;;;;;;5097488;28;20116;-73
2021/01/20 05:49:23;;;;;;;5.50;3.15;;;;;;;;;;5098137;28;20036;-74
2021/01/20 05:51:49;;;;;;;5.40;3.35;;;;;;;;;;5081862;28;20508;-74
2021/01/20 05:54:29;;;;;;;4.68;2.70;;;;;;;;;;5078118;28;20024;-73
2021/01/20 05:56:54;;;;;;;4.63;2.75;;;;;;;;;;5077153;28;20037;-73
2021/01/20 05:59:24;;;;;;;6.90;3.53;;;;;;;;;;5077546;28;20048;-74
2021/01/20 06:01:51;;;;;;;7.18;3.53;;;;;;;;;;5076475;28;20040;-74
2021/01/20 06:04:17;;;;;;;7.05;3.60;;;;;;;;;;5078176;28;20039;-74
2021/01/20 06:06:42;;;;;;;5.82;3.60;;;;;;;;;;5075208;28;20033;-74
2021/01/20 06:09:08;;;;;;;8.00;3.65;;;;;;;;;;5075673;28;20024;-74
2021/01/20 06:11:33;;;;;;;5.65;3.30;;;;;;;;;;5075527;28;20081;-74
2021/01/20 06:14:00;;;;;;;4.72;3.20;;;;;;;;;;5075691;28;20109;-74
2021/01/20 06:16:29;;;;;;;6.78;3.10;;;;;;;;;;5073922;28;20102;-74
2021/01/20 06:19:02;;;;;;;5.32;3.63;;;;;;;;;;5075367;28;20477;-74
2021/01/20 06:21:28;;;;;;;5.72;3.45;;;;;;;;;;5088938;28;20035;-74
2021/01/20 06:24:05;;;;;;;7.93;4.03;;;;;;;;;;5095769;28;20050;-74
2021/01/20 06:26:32;;;;;;;12.18;3.50;;;;;;;;;;5095815;28;20090;-73
2021/01/20 06:29:03;;;;;;;6.30;3.47;;;;;;;;;;5096104;28;20073;-74
2021/01/20 06:31:30;;;;;;;6.13;3.10;;;;;;;;;;5094995;28;20040;-73
2021/01/20 06:34:03;;;;;;;5.65;3.20;;;;;;;;;;5095639;28;20036;-73
2021/01/20 06:36:33;;;;;;;4.90;3.40;;;;;;;;;;5096557;28;20067;-74
2021/01/20 06:38:59;;;;;;;6.43;3.58;;;;;;;;;;5096293;28;20032;-74
2021/01/20 06:41:40;;;;;;;10.32;4.35;;;;;;;;;;5096378;28;20045;-74
2021/01/20 06:44:07;;;;;;;5.90;3.50;;;;;;;;;;5096430;28;20032;-73
2021/01/20 06:46:33;;;;;;;7.15;3.72;;;;;;;;;;5095355;28;20124;-74
2021/01/20 06:48:59;;;;;;;7.45;3.30;;;;;;;;;;5095632;28;20068;-73
2021/01/20 06:51:26;;;;;;;6.13;3.53;;;;;;;;;;5096716;28;20041;-73
2021/01/20 06:54:00;;;;;;;8.57;4.53;;;;;;;;;;5097856;28;20032;-74
2021/01/20 06:56:32;;;;;;;7.10;3.88;;;;;;;;;;5098325;28;20032;-73
2021/01/20 06:59:16;;;;;;;6.00;3.38;;;;;;;;;;5098969;28;20027;-74
2021/01/20 07:02:02;;;;;;;9.55;4.65;;;;;;;;;;5098377;28;20493;-74
2021/01/20 07:04:37;;;;;;;7.35;3.75;;;;;;;;;;5097681;28;20436;-74
2021/01/20 07:07:10;;;;;;;7.57;3.92;;;;;;;;;;5096746;28;20043;-74
2021/01/20 07:10:00;;;;;;;7.15;3.95;;;;;;;;;;5098028;28;20122;-74
2021/01/20 07:12:26;;;;;;;8.40;4.28;;;;;;;;;;5097248;28;20028;-75
2021/01/20 07:14:52;;;;;;;7.95;3.05;;;;;;;;;;5096682;28;20036;-73
2021/01/20 07:17:19;;;;;;;7.22;3.63;;;;;;;;;;5096781;28;20050;-75
2021/01/20 07:19:45;;;;;;;5.30;3.22;;;;;;;;;;5097502;28;20060;-76
2021/01/20 07:22:11;;;;;;;6.60;3.33;;;;;;;;;;5094212;28;20035;-75
2021/01/20 07:24:37;;;;;;;7.03;3.58;;;;;;;;;;5097486;28;20032;-75
2021/01/20 07:27:10;;;;;;;5.35;3.20;;;;;;;;;;5095557;28;20042;-76
2021/01/20 07:29:40;;;;;;;6.85;3.33;;;;;;;;;;5096431;28;20043;-76
2021/01/20 07:32:06;;;;;;;7.00;3.58;;;;;;;;;;5095240;28;20495;-75
2021/01/20 07:34:39;;;;;;;8.20;4.10;;;;;;;;;;5095758;28;20124;-75
2021/01/20 07:37:09;;;;;;;8.30;4.47;;;;;;;;;;5096995;28;20036;-74
2021/01/20 07:39:34;;;;;;;5.05;3.08;;;;;;;;;;5095392;28;20043;-76
2021/01/20 07:42:00;;;;;;;4.75;3.30;;;;;;;;;;5094459;28;20393;-75
2021/01/20 07:44:26;;;;;;;10.10;4.20;;;;;;;;;;5093286;28;20486;-75
2021/01/20 07:47:06;;;;;;;7.70;3.88;;;;;;;;;;5094956;28;20039;-76
2021/01/20 07:49:35;;;;;;;6.80;3.58;;;;;;;;;;5078081;28;20428;-75
2021/01/20 07:52:10;;;;;;;6.38;3.70;;;;;;;;;;5097236;28;20048;-73
2021/01/20 07:54:40;;;;;;;6.55;3.40;;;;;;;;;;5082221;28;20039;-75
2021/01/20 07:57:07;;;;;;;6.35;2.97;;;;;;;;;;5102556;28;20040;-77
2021/01/20 07:59:32;;;;;;;6.32;3.42;;;;;;;;;;5106979;28;20100;-78
2021/01/20 08:02:25;;;;;;;5.05;3.40;;;;;;;;;;5096479;28;20074;-77
2021/01/20 08:05:05;;;;;;;8.13;4.00;;;;;;;;;;5100957;28;20067;-77
2021/01/20 08:07:31;;;;;;;6.60;3.65;;;;;;;;;;5100586;28;20043;-77
2021/01/20 08:09:59;;;;;;;7.40;3.80;;;;;;;;;;5105571;28;20044;-78
2021/01/20 08:12:27;;;;;;;9.45;4.65;;;;;;;;;;5100239;28;20032;-75
2021/01/20 08:14:53;;;;;;;6.15;3.42;;;;;;;;;;5094592;28;20047;-74
2021/01/20 08:17:22;;;;;;;8.05;3.63;;;;;;;;;;5093477;28;20095;-72
2021/01/20 08:19:48;;;;;;;6.85;3.88;;;;;;;;;;5093042;28;20043;-74
2021/01/20 08:22:15;;;;;;;5.00;3.13;;;;;;;;;;5093428;28;20043;-73
2021/01/20 08:24:48;;;;;;;6.40;3.30;;;;;;;;;;5096149;28;20425;-72
2021/01/20 08:27:15;;;;;;;12.23;4.07;;;;;;;;;;5097676;28;20085;-73
2021/01/20 08:29:51;;;;;;;6.60;3.03;;;;;;;;;;5096910;28;20123;-74
2021/01/20 08:32:16;;;;;;;5.82;3.33;;;;;;;;;;5096552;28;20111;-74
2021/01/20 08:34:43;;;;;;;7.00;3.50;;;;;;;;;;5096688;28;20071;-75
2021/01/20 08:37:17;;;;;;;5.60;3.20;;;;;;;;;;5097191;28;20128;-74
2021/01/20 08:39:56;;;;;;;7.20;2.90;;;;;;;;;;5095718;28;20560;-73
2021/01/20 08:42:38;;;;;;;8.02;3.72;;;;;;;;;;5096774;28;20032;-73
2021/01/20 08:45:14;;;;;;;3.95;2.65;;;;;;;;;;5096714;28;20520;-73
2021/01/20 08:48:09;;;;;;;5.07;3.15;;;;;;;;;;5095361;28;20040;-75
2021/01/20 08:50:43;;;;;;;6.88;3.15;;;;;;;;;;5096480;28;20043;-74
2021/01/20 08:53:14;;;;;;;5.82;3.00;;;;;;;;;;5095610;28;20036;-74
2021/01/20 08:55:50;;;;;;;6.72;2.83;;;;;;;;;;5096583;28;20517;-74
2021/01/20 08:58:26;;;;;;;6.70;2.65;;;;;;;;;;5096483;28;20074;-74
2021/01/20 09:00:54;;;;;;;3.80;2.83;;;;;;;;;;5091337;28;20055;-74
2021/01/20 09:03:31;;;;;;;5.03;3.13;;;;;;;;;;5086064;28;20408;-73
2021/01/20 09:05:58;;;;;;;4.55;3.08;;;;;;;;;;5079919;28;20084;-74
2021/01/20 09:08:25;;;;;;;3.45;2.63;;;;;;;;;;5087270;28;20028;-77
2021/01/20 09:10:52;;;;;;;6.55;2.97;;;;;;;;;;5088228;28;20104;-77
2021/01/20 09:13:18;;;;;;;4.00;2.70;;;;;;;;;;5090735;28;20496;-75
2021/01/20 09:15:45;;;;;;;4.95;2.75;;;;;;;;;;5086103;28;20033;-75
2021/01/20 09:18:10;;;;;;;5.50;2.80;;;;;;;;;;5094944;28;20031;-75
2021/01/20 09:20:36;;;;;;;6.60;2.70;;;;;;;;;;5091163;28;20089;-76
2021/01/20 09:23:05;;;;;;;4.95;3.00;;;;;;;;;;5075495;28;20043;-75
2021/01/20 09:25:30;;;;;;;4.82;2.90;;;;;;;;;;5077519;28;20028;-74
2021/01/20 09:27:56;;;;;;;5.25;2.92;;;;;;;;;;5075846;28;20032;-75
2021/01/20 09:30:23;;;;;;;4.18;2.83;;;;;;;;;;5078472;28;20036;-76
2021/01/20 09:32:48;;;;;;;6.43;3.50;;;;;;;;;;5074293;28;20095;-76
2021/01/20 09:35:15;;;;;;;5.93;3.38;;;;;;;;;;5079677;28;20121;-73
2021/01/20 09:37:42;;;;;;;5.88;2.95;;;;;;;;;;5095201;28;20039;-73
2021/01/20 09:40:10;;;;;;;6.35;2.90;;;;;;;;;;5094671;28;20040;-73
2021/01/20 09:42:36;;;;;;;6.53;2.97;;;;;;;;;;5097886;28;20032;-75
2021/01/20 09:45:03;;;;;;;6.15;3.33;;;;;;;;;;5094774;28;20064;-73
2021/01/20 09:47:28;;;;;;;5.78;3.13;;;;;;;;;;5096824;28;20039;-73
2021/01/20 09:49:54;;;;;;;5.65;3.42;;;;;;;;;;5097228;28;20042;-73
2021/01/20 09:52:20;;;;;;;7.57;3.15;;;;;;;;;;5096201;28;20081;-73
2021/01/20 09:54:46;;;;;;;4.80;2.70;;;;;;;;;;5096365;28;20035;-74
2021/01/20 09:57:11;;;;;;;6.72;3.63;;;;;;;;;;5096363;28;20051;-73
2021/01/20 09:59:37;;;;;;;7.05;3.58;;;;;;;;;;5097276;28;20047;-74
2021/01/20 10:02:02;;;;;;;6.20;3.63;;;;;;;;;;5096324;28;20047;-75
2021/01/20 10:04:28;;;;;;;7.70;3.00;;;;;;;;;;5095918;28;20036;-74
2021/01/20 10:06:53;;;;;;;5.30;2.60;;;;;;;;;;5095948;28;20495;-75
2021/01/20 10:09:21;;;;;;;9.30;3.20;;;;;;;;;;5095430;28;20043;-73
2021/01/20 10:11:49;;;;;;;5.75;2.85;;;;;;;;;;5095440;28;20038;-74
2021/01/20 10:14:16;;;;;;;4.47;2.80;;;;;;;;;;5095745;28;20036;-75
2021/01/20 10:16:42;;;;;;;4.95;3.08;;;;;;;;;;5096791;28;20047;-74
2021/01/20 10:19:07;;;;;;;7.07;3.40;;;;;;;;;;5095899;28;20103;-74
2021/01/20 10:21:32;;;;;;;6.32;3.00;;;;;;;;;;5096644;28;20075;-75
2021/01/20 10:23:58;;;;;;;6.95;3.58;;;;;;;;;;5097121;28;20063;-74
2021/01/20 10:26:24;;;;;;;4.53;2.42;;;;;;;;;;5097089;28;20480;-74
2021/01/20 10:28:49;;;;;;;6.60;3.10;;;;;;;;;;5097852;28;20115;-74
2021/01/20 10:31:15;;;;;;;7.13;3.20;;;;;;;;;;5097407;28;20070;-75
2021/01/20 10:33:41;;;;;;;6.55;2.65;;;;;;;;;;5097256;28;20094;-76
2021/01/20 10:36:07;;;;;;;5.25;3.13;;;;;;;;;;5098704;28;20036;-76
2021/01/20 10:38:32;;;;;;;5.85;2.65;;;;;;;;;;5097691;28;20043;-76
2021/01/20 10:40:58;;;;;;;6.90;3.47;;;;;;;;;;5100751;28;20067;-75
2021/01/20 10:43:23;;;;;;;4.35;2.63;;;;;;;;;;5095482;28;20039;-75
2021/01/20 10:45:49;;;;;;;9.38;4.03;;;;;;;;;;5094400;28;20079;-75
2021/01/20 10:48:14;;;;;;;5.85;3.00;;;;;;;;;;5095006;28;20081;-75
2021/01/20 10:50:39;;;;;;;5.30;2.90;;;;;;;;;;5096234;28;20040;-76
2021/01/20 10:53:05;;;;;;;5.32;3.30;;;;;;;;;;5096592;28;20040;-75
2021/01/20 10:55:30;;;;;;;6.35;3.05;;;;;;;;;;5096150;28;20097;-75
2021/01/20 10:57:55;;;;;;;6.03;3.25;;;;;;;;;;5093304;28;20062;-74
2021/01/20 11:00:21;;;;;;;4.72;3.13;;;;;;;;;;5094082;28;20370;-72
2021/01/20 11:02:47;;;;;;;5.95;3.20;;;;;;;;;;5093895;28;20043;-73
2021/01/20 11:05:12;;;;;;;7.28;3.45;;;;;;;;;;5094398;28;20028;-73
2021/01/20 11:07:39;;;;;;;5.15;2.63;;;;;;;;;;5094605;28;20020;-74
2021/01/20 11:10:05;;;;;;;5.22;3.42;;;;;;;;;;5094231;28;20121;-75
2021/01/20 11:12:30;;;;;;;3.95;2.40;;;;;;;;;;5092774;28;20071;-73
2021/01/20 11:14:56;;;;;;;6.07;3.13;;;;;;;;;;5093963;28;20123;-73
2021/01/20 11:17:21;;;;;;;7.10;3.38;;;;;;;;;;5093574;28;20036;-74
2021/01/20 11:19:46;;;;;;;6.88;3.63;;;;;;;;;;5093731;28;20028;-74
2021/01/20 11:22:12;;;;;;;5.45;3.60;;;;;;;;;;5093703;28;20441;-74
2021/01/20 11:24:37;;;;;;;4.45;3.05;;;;;;;;;;5093745;28;20378;-74
2021/01/20 11:27:02;;;;;;;5.50;3.20;;;;;;;;;;5092648;28;20451;-75
2021/01/20 11:29:28;;;;;;;5.22;3.58;;;;;;;;;;5094478;28;20058;-75
2021/01/20 11:31:53;;;;;;;4.95;3.30;;;;;;;;;;5093752;28;20358;-75
2021/01/20 11:34:18;;;;;;;7.32;3.30;;;;;;;;;;5093214;28;20127;-75
2021/01/20 11:36:44;;;;;;;6.80;3.83;;;;;;;;;;5093613;28;20032;-75
2021/01/20 11:39:09;;;;;;;8.80;5.13;;;;;;;;;;5093699;28;20043;-75
2021/01/20 11:41:34;;;;;;;5.10;2.97;;;;;;;;;;5093397;28;20035;-75
2021/01/20 11:44:00;;;;;;;6.35;3.20;;;;;;;;;;5093838;28;20031;-75
2021/01/20 11:46:26;;;;;;;6.43;3.30;;;;;;;;;;5093387;28;20048;-75
2021/01/20 11:48:53;;;;;;;7.00;3.38;;;;;;;;;;5093178;28;20036;-75
2021/01/20 11:51:18;;;;;;;5.70;3.63;;;;;;;;;;5093410;28;20040;-75
2021/01/20 11:53:43;;;;;;;6.80;3.50;;;;;;;;;;5093376;28;20036;-75
2021/01/20 11:56:09;;;;;;;5.35;3.22;;;;;;;;;;5093371;28;20059;-75
2021/01/20 11:58:34;;;;;;;4.57;2.50;;;;;;;;;;5092944;28;20059;-75
2021/01/20 12:01:00;;;;;;;4.97;2.80;;;;;;;;;;5093358;28;20039;-75
2021/01/20 12:03:25;;;;;;;5.68;3.00;;;;;;;;;;5093010;28;20035;-75
2021/01/20 12:05:51;;;;;;;6.20;3.08;;;;;;;;;;5093225;28;20020;-75
2021/01/20 12:08:17;;;;;;;7.78;2.75;;;;;;;;;;5093223;28;20473;-74
2021/01/20 12:10:43;;;;;;;4.90;2.90;;;;;;;;;;5093218;28;20156;-75
2021/01/20 12:13:08;;;;;;;4.90;3.03;;;;;;;;;;5093428;28;20028;-75
2021/01/20 12:15:33;;;;;;;6.28;3.00;;;;;;;;;;5091967;28;20028;-75
2021/01/20 12:17:59;;;;;;;4.43;2.80;;;;;;;;;;5093067;28;20040;-75
2021/01/20 12:20:24;;;;;;;4.82;2.60;;;;;;;;;;5093189;28;20504;-75
2021/01/20 12:22:49;;;;;;;5.30;2.88;;;;;;;;;;5093292;28;20066;-75
2021/01/20 12:25:15;;;;;;;7.20;2.67;;;;;;;;;;5093179;28;20028;-75
2021/01/20 12:27:40;;;;;;;5.07;2.75;;;;;;;;;;5093227;28;20053;-76
2021/01/20 12:30:07;;;;;;;6.80;3.05;;;;;;;;;;5093296;28;20490;-75
2021/01/20 12:32:32;;;;;;;7.38;3.22;;;;;;;;;;5093198;28;20126;-75
2021/01/20 12:34:58;;;;;;;5.47;2.90;;;;;;;;;;5092817;28;20111;-75
2021/01/20 12:37:23;;;;;;;6.03;3.28;;;;;;;;;;5092876;28;20401;-75
2021/01/20 12:39:48;;;;;;;4.55;2.80;;;;;;;;;;5092852;28;20035;-75
2021/01/20 12:42:13;;;;;;;7.32;3.58;;;;;;;;;;5092959;28;20481;-75
2021/01/20 12:44:39;;;;;;;6.10;3.55;;;;;;;;;;5092877;28;20032;-76
2021/01/20 12:47:04;;;;;;;5.05;3.03;;;;;;;;;;5092982;28;20036;-75
2021/01/20 12:49:30;;;;;;;5.18;2.63;;;;;;;;;;5092251;28;20036;-75
2021/01/20 12:51:55;;;;;;;4.93;3.20;;;;;;;;;;5090722;28;20036;-75
2021/01/20 12:54:21;;;;;;;5.50;2.83;;;;;;;;;;5092907;28;20063;-76
2021/01/20 12:56:46;;;;;;;13.65;3.45;;;;;;;;;;5074846;28;20036;-75
2021/01/20 12:59:12;;;;;;;4.70;3.08;;;;;;;;;;5093028;28;20039;-77
2021/01/20 13:01:37;;;;;;;5.40;3.25;;;;;;;;;;5093560;28;20088;-76
2021/01/20 13:04:03;;;;;;;5.82;3.05;;;;;;;;;;5093012;28;20032;-75
2021/01/20 13:06:28;;;;;;;7.85;3.03;;;;;;;;;;5091135;28;20538;-76
2021/01/20 13:08:53;;;;;;;7.80;2.60;;;;;;;;;;5092611;28;20546;-75
2021/01/20 13:11:19;;;;;;;4.80;2.50;;;;;;;;;;5095985;28;20040;-75
2021/01/20 13:13:44;;;;;;;6.45;2.85;;;;;;;;;;5096469;28;20073;-75
2021/01/20 13:16:10;;;;;;;3.78;2.35;;;;;;;;;;5096306;28;20127;-76
2021/01/20 13:18:35;;;;;;;6.45;2.70;;;;;;;;;;5096167;28;20040;-75
2021/01/20 13:21:05;;;;;;;4.88;2.72;;;;;;;;;;5097108;28;20382;-76
2021/01/20 13:23:30;;;;;;;3.25;2.20;;;;;;;;;;5095023;28;20484;-75
2021/01/20 13:25:56;;;;;;;5.45;2.90;;;;;;;;;;5096637;28;20028;-75
2021/01/20 13:28:22;;;;;;;6.10;3.13;;;;;;;;;;5086465;28;20029;-75
2021/01/20 13:30:50;;;;;;;5.13;2.72;;;;;;;;;;5084304;28;20044;-75
2021/01/20 13:33:16;;;;;;;6.57;2.42;;;;;;;;;;5078012;28;20067;-75
2021/01/20 13:35:41;;;;;;;5.45;2.85;;;;;;;;;;5075246;28;20064;-75
2021/01/20 13:38:06;;;;;;;8.38;2.95;;;;;;;;;;5077985;28;20066;-75
2021/01/20 13:40:32;;;;;;;7.70;3.90;;;;;;;;;;5075530;28;20071;-75
2021/01/20 13:42:57;;;;;;;9.50;3.63;;;;;;;;;;5089650;28;20385;-76
2021/01/20 13:45:23;;;;;;;6.63;2.78;;;;;;;;;;5095720;28;20044;-76
2021/01/20 13:47:49;;;;;;;6.22;2.88;;;;;;;;;;5095646;28;20113;-75
2021/01/20 13:50:14;;;;;;;6.00;2.40;;;;;;;;;;5094911;28;20051;-75
2021/01/20 13:52:40;;;;;;;4.60;2.38;;;;;;;;;;5095681;28;20040;-75
2021/01/20 13:55:07;;;;;;;6.05;2.88;;;;;;;;;;5095021;28;20036;-75
2021/01/20 13:57:32;;;;;;;7.40;3.22;;;;;;;;;;5096063;28;20051;-75
2021/01/20 13:59:57;;;;;;;4.93;2.75;;;;;;;;;;5116357;28;20035;-75
2021/01/20 14:02:23;;;;;;;5.35;2.80;;;;;;;;;;5115953;28;20027;-76
2021/01/20 14:04:48;;;;;;;8.02;2.92;;;;;;;;;;5117316;28;20122;-78
2021/01/20 14:07:15;;;;;;;6.55;3.03;;;;;;;;;;5118317;28;20027;-74
2021/01/20 14:09:40;;;;;;;5.95;2.80;;;;;;;;;;5115710;28;20059;-73
2021/01/20 14:12:06;;;;;;;3.70;2.03;;;;;;;;;;5107164;28;20036;-73
2021/01/20 14:14:34;;;;;;;6.80;2.88;;;;;;;;;;5095258;28;20081;-74
2021/01/20 14:16:59;;;;;;;5.95;2.67;;;;;;;;;;5093696;28;20107;-73
2021/01/20 14:19:24;;;;;;;6.22;3.17;;;;;;;;;;5094113;28;20471;-73
2021/01/20 14:21:50;;;;;;;6.60;2.70;;;;;;;;;;5108708;28;20035;-73
2021/01/20 14:24:19;;;;;;;7.05;2.95;;;;;;;;;;5111379;27;20429;-72
2021/01/20 14:26:49;;;;;;;7.88;2.70;;;;;;;;;;5084356;28;20393;-72
2021/01/20 14:29:18;;;;;;;5.43;2.40;;;;;;;;;;5087957;28;20074;-75
2021/01/20 14:31:45;;;;;;;6.03;2.58;;;;;;;;;;5094964;28;20089;-75
2021/01/20 14:34:10;;;;;;;5.53;2.58;;;;;;;;;;5094604;28;20078;-75
2021/01/20 14:36:36;;;;;;;5.82;2.47;;;;;;;;;;5094755;28;20032;-75
2021/01/20 14:39:02;;;;;;;5.93;2.30;;;;;;;;;;5095700;28;20044;-75
2021/01/20 14:41:27;;;;;;;5.95;2.38;;;;;;;;;;5097094;28;20394;-76
2021/01/20 14:43:52;;;;;;;5.93;2.67;;;;;;;;;;5095244;28;20031;-76
2021/01/20 14:46:18;;;;;;;6.57;2.50;;;;;;;;;;5093790;28;20132;-74
2021/01/20 14:48:43;;;;;;;4.82;2.50;;;;;;;;;;5094404;28;20040;-74